sensor_id;sensor_type;location;lat;lon;timestamp;P1;durP1;ratioP1;P2;durP2;ratioP2
73023;SDS011;61199;47.526;8.538;2023-04-12T00:00:45;5.90;;;2.30;;
73023;SDS011;61199;47.526;8.538;2023-04-12T00:03:11;4.67;;;1.83;;
73023;SDS011;61199;47.526;8.538;2023-04-12T00:05:38;8.03;;;2.47;;
73023;SDS011;61199;47.526;8.538;2023-04-12T00:08:04;5.60;;;2.30;;
73023;SDS011;61199;47.526;8.538;2023-04-12T00:10:31;3.90;;;2.40;;
73023;SDS011;61199;47.526;8.538;2023-04-12T00:12:57;3.00;;;2.17;;
73023;SDS011;61199;47.526;8.538;2023-04-12T00:15:24;4.30;;;2.00;;
73023;SDS011;61199;47.526;8.538;2023-04-12T00:17:50;4.20;;;2.87;;
73023;SDS011;61199;47.526;8.538;2023-04-12T00:20:16;7.00;;;1.37;;
73023;SDS011;61199;47.526;8.538;2023-04-12T00:22:43;3.60;;;1.60;;
73023;SDS011;61199;47.526;8.538;2023-04-12T00:25:10;3.40;;;1.63;;
73023;SDS011;61199;47.526;8.538;2023-04-12T00:27:36;3.53;;;1.40;;
73023;SDS011;61199;47.526;8.538;2023-04-12T00:30:04;3.60;;;1.90;;
73023;SDS011;61199;47.526;8.538;2023-04-12T00:32:32;3.10;;;1.80;;
73023;SDS011;61199;47.526;8.538;2023-04-12T00:34:58;3.33;;;1.67;;
73023;SDS011;61199;47.526;8.538;2023-04-12T00:37:25;3.97;;;1.57;;
73023;SDS011;61199;47.526;8.538;2023-04-12T00:39:51;7.00;;;2.10;;
73023;SDS011;61199;47.526;8.538;2023-04-12T00:42:18;2.37;;;1.60;;
73023;SDS011;61199;47.526;8.538;2023-04-12T00:44:44;2.60;;;1.83;;
73023;SDS011;61199;47.526;8.538;2023-04-12T00:47:10;2.17;;;1.50;;
73023;SDS011;61199;47.526;8.538;2023-04-12T00:49:37;3.20;;;1.57;;
73023;SDS011;61199;47.526;8.538;2023-04-12T00:52:04;3.60;;;1.67;;
73023;SDS011;61199;47.526;8.538;2023-04-12T00:54:39;4.33;;;1.80;;
73023;SDS011;61199;47.526;8.538;2023-04-12T00:57:08;3.60;;;1.73;;
73023;SDS011;61199;47.526;8.538;2023-04-12T00:59:35;3.03;;;1.50;;
73023;SDS011;61199;47.526;8.538;2023-04-12T01:02:01;4.00;;;1.70;;
73023;SDS011;61199;47.526;8.538;2023-04-12T01:04:28;2.80;;;1.87;;
73023;SDS011;61199;47.526;8.538;2023-04-12T01:07:09;5.63;;;1.70;;
73023;SDS011;61199;47.526;8.538;2023-04-12T01:12:44;7.03;;;2.30;;
73023;SDS011;61199;47.526;8.538;2023-04-12T01:15:22;5.47;;;1.90;;
73023;SDS011;61199;47.526;8.538;2023-04-12T01:18:04;3.93;;;1.17;;
73023;SDS011;61199;47.526;8.538;2023-04-12T01:20:37;3.90;;;1.93;;
73023;SDS011;61199;47.526;8.538;2023-04-12T01:23:19;2.30;;;1.20;;
73023;SDS011;61199;47.526;8.538;2023-04-12T01:28:52;4.83;;;2.00;;
73023;SDS011;61199;47.526;8.538;2023-04-12T01:31:19;4.07;;;1.30;;
73023;SDS011;61199;47.526;8.538;2023-04-12T01:33:46;1.93;;;1.40;;
73023;SDS011;61199;47.526;8.538;2023-04-12T01:36:16;2.90;;;1.50;;
73023;SDS011;61199;47.526;8.538;2023-04-12T01:38:44;2.93;;;1.30;;
73023;SDS011;61199;47.526;8.538;2023-04-12T01:41:11;2.17;;;1.33;;
73023;SDS011;61199;47.526;8.538;2023-04-12T01:43:39;3.23;;;1.03;;
73023;SDS011;61199;47.526;8.538;2023-04-12T01:46:08;2.90;;;1.30;;
73023;SDS011;61199;47.526;8.538;2023-04-12T01:48:37;2.03;;;1.40;;
73023;SDS011;61199;47.526;8.538;2023-04-12T01:51:09;5.90;;;1.70;;
73023;SDS011;61199;47.526;8.538;2023-04-12T01:56:30;1.80;;;1.10;;
73023;SDS011;61199;47.526;8.538;2023-04-12T01:58:59;2.17;;;1.60;;
73023;SDS011;61199;47.526;8.538;2023-04-12T02:01:27;5.70;;;1.60;;
73023;SDS011;61199;47.526;8.538;2023-04-12T02:03:54;3.20;;;1.50;;
73023;SDS011;61199;47.526;8.538;2023-04-12T02:06:25;4.60;;;1.77;;
73023;SDS011;61199;47.526;8.538;2023-04-12T02:08:56;3.00;;;1.50;;
73023;SDS011;61199;47.526;8.538;2023-04-12T02:11:24;4.03;;;1.67;;
73023;SDS011;61199;47.526;8.538;2023-04-12T02:13:51;2.80;;;1.30;;
73023;SDS011;61199;47.526;8.538;2023-04-12T02:16:17;3.33;;;1.40;;
73023;SDS011;61199;47.526;8.538;2023-04-12T02:18:45;3.10;;;1.50;;
73023;SDS011;61199;47.526;8.538;2023-04-12T02:21:12;4.40;;;1.33;;
73023;SDS011;61199;47.526;8.538;2023-04-12T02:23:38;2.73;;;1.40;;
73023;SDS011;61199;47.526;8.538;2023-04-12T02:26:06;2.87;;;1.47;;
73023;SDS011;61199;47.526;8.538;2023-04-12T02:28:33;3.33;;;1.20;;
73023;SDS011;61199;47.526;8.538;2023-04-12T02:30:59;7.43;;;1.53;;
73023;SDS011;61199;47.526;8.538;2023-04-12T02:33:26;4.67;;;1.63;;
73023;SDS011;61199;47.526;8.538;2023-04-12T02:35:55;2.70;;;1.57;;
73023;SDS011;61199;47.526;8.538;2023-04-12T02:38:22;3.00;;;1.40;;
73023;SDS011;61199;47.526;8.538;2023-04-12T02:40:48;2.97;;;1.30;;
73023;SDS011;61199;47.526;8.538;2023-04-12T02:43:15;3.33;;;1.40;;
73023;SDS011;61199;47.526;8.538;2023-04-12T02:45:41;2.50;;;1.43;;
73023;SDS011;61199;47.526;8.538;2023-04-12T02:48:08;2.07;;;1.27;;
73023;SDS011;61199;47.526;8.538;2023-04-12T02:50:35;1.80;;;1.50;;
73023;SDS011;61199;47.526;8.538;2023-04-12T02:53:02;4.63;;;1.57;;
73023;SDS011;61199;47.526;8.538;2023-04-12T02:55:28;3.23;;;1.60;;
73023;SDS011;61199;47.526;8.538;2023-04-12T02:57:55;6.70;;;1.90;;
73023;SDS011;61199;47.526;8.538;2023-04-12T03:00:22;3.80;;;1.70;;
73023;SDS011;61199;47.526;8.538;2023-04-12T03:02:49;1.80;;;1.50;;
73023;SDS011;61199;47.526;8.538;2023-04-12T03:05:18;4.30;;;1.50;;
73023;SDS011;61199;47.526;8.538;2023-04-12T03:07:45;2.83;;;1.67;;
73023;SDS011;61199;47.526;8.538;2023-04-12T03:10:11;6.73;;;1.33;;
73023;SDS011;61199;47.526;8.538;2023-04-12T03:12:38;4.23;;;1.83;;
73023;SDS011;61199;47.526;8.538;2023-04-12T03:15:04;3.90;;;1.60;;
73023;SDS011;61199;47.526;8.538;2023-04-12T03:17:31;2.47;;;1.50;;
73023;SDS011;61199;47.526;8.538;2023-04-12T03:20:04;2.33;;;1.43;;
73023;SDS011;61199;47.526;8.538;2023-04-12T03:22:35;7.40;;;2.10;;
73023;SDS011;61199;47.526;8.538;2023-04-12T03:25:03;3.80;;;1.77;;
73023;SDS011;61199;47.526;8.538;2023-04-12T03:27:30;2.30;;;1.37;;
73023;SDS011;61199;47.526;8.538;2023-04-12T03:29:56;2.33;;;1.50;;
73023;SDS011;61199;47.526;8.538;2023-04-12T03:32:23;2.33;;;1.43;;
73023;SDS011;61199;47.526;8.538;2023-04-12T03:34:50;2.50;;;1.20;;
73023;SDS011;61199;47.526;8.538;2023-04-12T03:37:16;3.07;;;1.97;;
73023;SDS011;61199;47.526;8.538;2023-04-12T03:39:43;2.83;;;1.50;;
73023;SDS011;61199;47.526;8.538;2023-04-12T03:42:13;2.23;;;1.43;;
73023;SDS011;61199;47.526;8.538;2023-04-12T03:44:57;6.73;;;2.07;;
73023;SDS011;61199;47.526;8.538;2023-04-12T03:47:23;2.80;;;1.73;;
73023;SDS011;61199;47.526;8.538;2023-04-12T03:49:50;3.90;;;2.20;;
73023;SDS011;61199;47.526;8.538;2023-04-12T03:52:35;4.00;;;2.00;;
73023;SDS011;61199;47.526;8.538;2023-04-12T03:55:02;3.23;;;2.00;;
73023;SDS011;61199;47.526;8.538;2023-04-12T03:57:30;2.20;;;1.77;;
73023;SDS011;61199;47.526;8.538;2023-04-12T03:59:57;4.40;;;2.03;;
73023;SDS011;61199;47.526;8.538;2023-04-12T04:02:23;2.90;;;2.23;;
73023;SDS011;61199;47.526;8.538;2023-04-12T04:04:50;5.37;;;2.30;;
73023;SDS011;61199;47.526;8.538;2023-04-12T04:07:17;4.30;;;2.07;;
73023;SDS011;61199;47.526;8.538;2023-04-12T04:09:43;4.10;;;2.60;;
73023;SDS011;61199;47.526;8.538;2023-04-12T04:12:09;5.20;;;2.23;;
73023;SDS011;61199;47.526;8.538;2023-04-12T04:14:36;3.80;;;2.37;;
73023;SDS011;61199;47.526;8.538;2023-04-12T04:17:02;5.20;;;2.50;;
73023;SDS011;61199;47.526;8.538;2023-04-12T04:19:29;3.70;;;2.50;;
73023;SDS011;61199;47.526;8.538;2023-04-12T04:21:55;5.77;;;2.47;;
73023;SDS011;61199;47.526;8.538;2023-04-12T04:24:21;4.67;;;2.27;;
73023;SDS011;61199;47.526;8.538;2023-04-12T04:26:50;7.50;;;2.97;;
73023;SDS011;61199;47.526;8.538;2023-04-12T04:29:19;7.43;;;2.83;;
73023;SDS011;61199;47.526;8.538;2023-04-12T04:31:45;6.00;;;3.40;;
73023;SDS011;61199;47.526;8.538;2023-04-12T04:34:12;5.27;;;2.53;;
73023;SDS011;61199;47.526;8.538;2023-04-12T04:36:39;5.30;;;2.70;;
73023;SDS011;61199;47.526;8.538;2023-04-12T04:39:06;4.80;;;2.80;;
73023;SDS011;61199;47.526;8.538;2023-04-12T04:41:32;3.07;;;2.20;;
73023;SDS011;61199;47.526;8.538;2023-04-12T04:44:06;4.97;;;2.70;;
73023;SDS011;61199;47.526;8.538;2023-04-12T04:46:36;4.37;;;2.93;;
73023;SDS011;61199;47.526;8.538;2023-04-12T04:49:03;12.93;;;6.40;;
73023;SDS011;61199;47.526;8.538;2023-04-12T04:51:30;9.37;;;4.90;;
73023;SDS011;61199;47.526;8.538;2023-04-12T04:53:57;5.47;;;3.03;;
73023;SDS011;61199;47.526;8.538;2023-04-12T04:56:24;6.37;;;3.10;;
73023;SDS011;61199;47.526;8.538;2023-04-12T04:58:51;5.70;;;2.53;;
73023;SDS011;61199;47.526;8.538;2023-04-12T05:01:20;5.27;;;3.27;;
73023;SDS011;61199;47.526;8.538;2023-04-12T05:03:50;9.30;;;2.90;;
73023;SDS011;61199;47.526;8.538;2023-04-12T05:06:17;4.57;;;2.87;;
73023;SDS011;61199;47.526;8.538;2023-04-12T05:08:43;5.30;;;3.20;;
73023;SDS011;61199;47.526;8.538;2023-04-12T05:11:10;4.80;;;3.07;;
73023;SDS011;61199;47.526;8.538;2023-04-12T05:13:36;6.53;;;2.77;;
73023;SDS011;61199;47.526;8.538;2023-04-12T05:16:06;4.37;;;2.60;;
73023;SDS011;61199;47.526;8.538;2023-04-12T05:18:33;5.20;;;2.33;;
73023;SDS011;61199;47.526;8.538;2023-04-12T05:21:03;6.73;;;3.03;;
73023;SDS011;61199;47.526;8.538;2023-04-12T05:23:34;7.80;;;2.87;;
73023;SDS011;61199;47.526;8.538;2023-04-12T05:26:02;7.40;;;3.37;;
73023;SDS011;61199;47.526;8.538;2023-04-12T05:28:29;6.90;;;3.00;;
73023;SDS011;61199;47.526;8.538;2023-04-12T05:30:55;4.80;;;3.20;;
73023;SDS011;61199;47.526;8.538;2023-04-12T05:33:22;6.80;;;3.33;;
73023;SDS011;61199;47.526;8.538;2023-04-12T05:35:48;4.80;;;3.60;;
73023;SDS011;61199;47.526;8.538;2023-04-12T05:38:15;5.03;;;3.23;;
73023;SDS011;61199;47.526;8.538;2023-04-12T05:40:41;10.93;;;3.80;;
73023;SDS011;61199;47.526;8.538;2023-04-12T05:43:09;8.53;;;3.73;;
73023;SDS011;61199;47.526;8.538;2023-04-12T05:45:39;4.47;;;3.13;;
73023;SDS011;61199;47.526;8.538;2023-04-12T05:48:06;6.40;;;3.07;;
73023;SDS011;61199;47.526;8.538;2023-04-12T05:50:34;6.90;;;3.60;;
73023;SDS011;61199;47.526;8.538;2023-04-12T05:53:01;5.23;;;3.50;;
73023;SDS011;61199;47.526;8.538;2023-04-12T05:55:28;5.63;;;3.80;;
73023;SDS011;61199;47.526;8.538;2023-04-12T05:57:55;9.97;;;4.03;;
73023;SDS011;61199;47.526;8.538;2023-04-12T06:00:22;6.50;;;3.77;;
73023;SDS011;61199;47.526;8.538;2023-04-12T06:02:49;5.33;;;3.37;;
73023;SDS011;61199;47.526;8.538;2023-04-12T06:05:17;5.80;;;3.40;;
73023;SDS011;61199;47.526;8.538;2023-04-12T06:07:43;5.00;;;3.00;;
73023;SDS011;61199;47.526;8.538;2023-04-12T06:10:13;8.10;;;3.53;;
73023;SDS011;61199;47.526;8.538;2023-04-12T06:12:43;8.63;;;3.53;;
73023;SDS011;61199;47.526;8.538;2023-04-12T06:15:10;6.70;;;3.60;;
73023;SDS011;61199;47.526;8.538;2023-04-12T06:17:36;5.60;;;3.13;;
73023;SDS011;61199;47.526;8.538;2023-04-12T06:20:03;5.50;;;2.77;;
73023;SDS011;61199;47.526;8.538;2023-04-12T06:22:35;6.03;;;3.37;;
73023;SDS011;61199;47.526;8.538;2023-04-12T06:25:02;5.57;;;2.63;;
73023;SDS011;61199;47.526;8.538;2023-04-12T06:27:28;5.73;;;2.53;;
73023;SDS011;61199;47.526;8.538;2023-04-12T06:29:55;6.63;;;2.10;;
73023;SDS011;61199;47.526;8.538;2023-04-12T06:32:22;5.33;;;2.33;;
73023;SDS011;61199;47.526;8.538;2023-04-12T06:34:48;5.27;;;2.50;;
73023;SDS011;61199;47.526;8.538;2023-04-12T06:37:15;3.77;;;2.20;;
73023;SDS011;61199;47.526;8.538;2023-04-12T06:39:41;5.20;;;3.10;;
73023;SDS011;61199;47.526;8.538;2023-04-12T06:42:08;9.23;;;2.63;;
73023;SDS011;61199;47.526;8.538;2023-04-12T06:44:34;12.07;;;3.27;;
73023;SDS011;61199;47.526;8.538;2023-04-12T06:47:01;5.30;;;3.03;;
73023;SDS011;61199;47.526;8.538;2023-04-12T06:49:27;6.60;;;3.00;;
73023;SDS011;61199;47.526;8.538;2023-04-12T06:51:54;10.27;;;2.83;;
73023;SDS011;61199;47.526;8.538;2023-04-12T06:54:20;3.90;;;2.60;;
73023;SDS011;61199;47.526;8.538;2023-04-12T06:56:46;4.67;;;2.90;;
73023;SDS011;61199;47.526;8.538;2023-04-12T06:59:13;6.43;;;2.97;;
73023;SDS011;61199;47.526;8.538;2023-04-12T07:01:39;8.27;;;3.00;;
73023;SDS011;61199;47.526;8.538;2023-04-12T07:04:08;14.00;;;3.93;;
73023;SDS011;61199;47.526;8.538;2023-04-12T07:06:36;4.80;;;3.13;;
73023;SDS011;61199;47.526;8.538;2023-04-12T07:09:02;9.77;;;4.00;;
73023;SDS011;61199;47.526;8.538;2023-04-12T07:11:29;4.90;;;3.37;;
73023;SDS011;61199;47.526;8.538;2023-04-12T07:13:56;8.30;;;4.07;;
73023;SDS011;61199;47.526;8.538;2023-04-12T07:16:24;5.30;;;3.40;;
73023;SDS011;61199;47.526;8.538;2023-04-12T07:18:50;5.57;;;3.07;;
73023;SDS011;61199;47.526;8.538;2023-04-12T07:21:17;5.60;;;3.50;;
73023;SDS011;61199;47.526;8.538;2023-04-12T07:23:43;5.47;;;3.87;;
73023;SDS011;61199;47.526;8.538;2023-04-12T07:26:11;5.97;;;4.27;;
73023;SDS011;61199;47.526;8.538;2023-04-12T07:28:37;6.33;;;4.10;;
73023;SDS011;61199;47.526;8.538;2023-04-12T07:31:05;8.27;;;4.37;;
73023;SDS011;61199;47.526;8.538;2023-04-12T07:33:32;10.33;;;4.50;;
73023;SDS011;61199;47.526;8.538;2023-04-12T07:36:00;5.83;;;4.30;;
73023;SDS011;61199;47.526;8.538;2023-04-12T07:38:27;8.80;;;4.43;;
73023;SDS011;61199;47.526;8.538;2023-04-12T07:40:53;6.10;;;4.27;;
73023;SDS011;61199;47.526;8.538;2023-04-12T07:43:20;19.57;;;4.83;;
73023;SDS011;61199;47.526;8.538;2023-04-12T07:45:47;9.53;;;5.20;;
73023;SDS011;61199;47.526;8.538;2023-04-12T07:48:14;11.80;;;4.30;;
73023;SDS011;61199;47.526;8.538;2023-04-12T07:50:41;6.30;;;4.13;;
73023;SDS011;61199;47.526;8.538;2023-04-12T07:53:21;6.07;;;3.80;;
73023;SDS011;61199;47.526;8.538;2023-04-12T07:55:52;5.93;;;3.80;;
73023;SDS011;61199;47.526;8.538;2023-04-12T07:58:19;4.50;;;3.70;;
73023;SDS011;61199;47.526;8.538;2023-04-12T08:00:47;5.80;;;3.00;;
73023;SDS011;61199;47.526;8.538;2023-04-12T08:03:14;6.60;;;3.20;;
73023;SDS011;61199;47.526;8.538;2023-04-12T08:05:42;11.30;;;3.80;;
73023;SDS011;61199;47.526;8.538;2023-04-12T08:08:09;6.90;;;3.90;;
73023;SDS011;61199;47.526;8.538;2023-04-12T08:10:37;4.57;;;3.27;;
73023;SDS011;61199;47.526;8.538;2023-04-12T08:13:04;5.37;;;2.83;;
73023;SDS011;61199;47.526;8.538;2023-04-12T08:15:31;7.70;;;3.27;;
73023;SDS011;61199;47.526;8.538;2023-04-12T08:17:58;5.10;;;3.67;;
73023;SDS011;61199;47.526;8.538;2023-04-12T08:20:24;7.87;;;3.40;;
73023;SDS011;61199;47.526;8.538;2023-04-12T08:22:51;6.70;;;3.40;;
73023;SDS011;61199;47.526;8.538;2023-04-12T08:25:17;3.83;;;3.30;;
73023;SDS011;61199;47.526;8.538;2023-04-12T08:27:44;8.67;;;3.07;;
73023;SDS011;61199;47.526;8.538;2023-04-12T08:30:11;5.20;;;3.40;;
73023;SDS011;61199;47.526;8.538;2023-04-12T08:32:38;4.97;;;3.10;;
73023;SDS011;61199;47.526;8.538;2023-04-12T08:35:04;7.30;;;3.53;;
73023;SDS011;61199;47.526;8.538;2023-04-12T08:37:31;4.70;;;2.90;;
73023;SDS011;61199;47.526;8.538;2023-04-12T08:39:58;7.30;;;3.03;;
73023;SDS011;61199;47.526;8.538;2023-04-12T08:42:29;8.43;;;4.57;;
73023;SDS011;61199;47.526;8.538;2023-04-12T08:44:56;5.70;;;3.40;;
73023;SDS011;61199;47.526;8.538;2023-04-12T08:47:23;7.50;;;3.53;;
73023;SDS011;61199;47.526;8.538;2023-04-12T08:49:49;5.87;;;3.50;;
73023;SDS011;61199;47.526;8.538;2023-04-12T08:52:16;7.63;;;3.23;;
73023;SDS011;61199;47.526;8.538;2023-04-12T08:54:42;8.03;;;3.70;;
73023;SDS011;61199;47.526;8.538;2023-04-12T08:57:09;7.07;;;3.77;;
73023;SDS011;61199;47.526;8.538;2023-04-12T08:59:36;4.93;;;2.70;;
73023;SDS011;61199;47.526;8.538;2023-04-12T09:02:04;7.03;;;2.80;;
73023;SDS011;61199;47.526;8.538;2023-04-12T09:04:31;6.90;;;3.43;;
73023;SDS011;61199;47.526;8.538;2023-04-12T09:06:57;5.47;;;3.27;;
73023;SDS011;61199;47.526;8.538;2023-04-12T09:09:40;6.83;;;3.20;;
73023;SDS011;61199;47.526;8.538;2023-04-12T09:12:07;8.07;;;3.37;;
73023;SDS011;61199;47.526;8.538;2023-04-12T09:14:34;5.07;;;3.23;;
73023;SDS011;61199;47.526;8.538;2023-04-12T09:17:01;6.67;;;3.53;;
73023;SDS011;61199;47.526;8.538;2023-04-12T09:19:34;7.50;;;3.30;;
73023;SDS011;61199;47.526;8.538;2023-04-12T09:22:01;5.47;;;3.50;;
73023;SDS011;61199;47.526;8.538;2023-04-12T09:24:28;12.73;;;3.77;;
73023;SDS011;61199;47.526;8.538;2023-04-12T09:27:04;9.77;;;3.33;;
73023;SDS011;61199;47.526;8.538;2023-04-12T09:29:32;11.03;;;4.30;;
73023;SDS011;61199;47.526;8.538;2023-04-12T09:32:06;7.80;;;3.20;;
73023;SDS011;61199;47.526;8.538;2023-04-12T09:34:34;5.83;;;2.90;;
73023;SDS011;61199;47.526;8.538;2023-04-12T09:37:14;3.63;;;2.50;;
73023;SDS011;61199;47.526;8.538;2023-04-12T09:39:41;4.30;;;2.57;;
73023;SDS011;61199;47.526;8.538;2023-04-12T09:42:09;9.63;;;2.83;;
73023;SDS011;61199;47.526;8.538;2023-04-12T09:44:56;8.87;;;2.80;;
73023;SDS011;61199;47.526;8.538;2023-04-12T09:47:38;9.83;;;3.00;;
73023;SDS011;61199;47.526;8.538;2023-04-12T09:50:06;3.83;;;2.23;;
73023;SDS011;61199;47.526;8.538;2023-04-12T09:52:34;4.53;;;2.50;;
73023;SDS011;61199;47.526;8.538;2023-04-12T09:55:09;4.97;;;2.67;;
73023;SDS011;61199;47.526;8.538;2023-04-12T09:57:37;4.47;;;2.50;;
73023;SDS011;61199;47.526;8.538;2023-04-12T10:00:08;8.63;;;2.70;;
73023;SDS011;61199;47.526;8.538;2023-04-12T10:02:46;8.40;;;3.27;;
73023;SDS011;61199;47.526;8.538;2023-04-12T10:05:17;5.43;;;2.60;;
73023;SDS011;61199;47.526;8.538;2023-04-12T10:07:46;4.30;;;2.50;;
73023;SDS011;61199;47.526;8.538;2023-04-12T10:10:13;7.77;;;3.00;;
73023;SDS011;61199;47.526;8.538;2023-04-12T10:12:42;2.80;;;2.00;;
73023;SDS011;61199;47.526;8.538;2023-04-12T10:15:11;7.00;;;2.87;;
73023;SDS011;61199;47.526;8.538;2023-04-12T10:17:56;9.30;;;3.60;;
73023;SDS011;61199;47.526;8.538;2023-04-12T10:20:23;5.03;;;2.67;;
73023;SDS011;61199;47.526;8.538;2023-04-12T10:22:54;6.13;;;3.50;;
73023;SDS011;61199;47.526;8.538;2023-04-12T10:25:22;5.73;;;3.13;;
73023;SDS011;61199;47.526;8.538;2023-04-12T10:27:50;10.93;;;3.83;;
73023;SDS011;61199;47.526;8.538;2023-04-12T10:30:24;4.80;;;3.70;;
73023;SDS011;61199;47.526;8.538;2023-04-12T10:35:28;7.53;;;3.87;;
73023;SDS011;61199;47.526;8.538;2023-04-12T10:40:26;8.13;;;3.57;;
73023;SDS011;61199;47.526;8.538;2023-04-12T10:45:48;4.30;;;2.30;;
73023;SDS011;61199;47.526;8.538;2023-04-12T10:48:28;4.87;;;2.33;;
73023;SDS011;61199;47.526;8.538;2023-04-12T10:54:29;6.30;;;2.60;;
73023;SDS011;61199;47.526;8.538;2023-04-12T10:56:43;4.40;;;2.60;;
73023;SDS011;61199;47.526;8.538;2023-04-12T10:59:14;5.27;;;2.50;;
73023;SDS011;61199;47.526;8.538;2023-04-12T11:02:06;5.50;;;2.27;;
73023;SDS011;61199;47.526;8.538;2023-04-12T11:04:34;6.63;;;2.80;;
73023;SDS011;61199;47.526;8.538;2023-04-12T11:07:01;6.80;;;2.70;;
73023;SDS011;61199;47.526;8.538;2023-04-12T11:09:37;8.40;;;2.47;;
73023;SDS011;61199;47.526;8.538;2023-04-12T11:12:14;8.83;;;2.37;;
73023;SDS011;61199;47.526;8.538;2023-04-12T11:14:42;7.80;;;3.07;;
73023;SDS011;61199;47.526;8.538;2023-04-12T11:19:41;4.97;;;2.27;;
73023;SDS011;61199;47.526;8.538;2023-04-12T11:22:19;8.13;;;2.40;;
73023;SDS011;61199;47.526;8.538;2023-04-12T11:24:49;5.87;;;2.13;;
73023;SDS011;61199;47.526;8.538;2023-04-12T11:27:18;6.60;;;2.63;;
73023;SDS011;61199;47.526;8.538;2023-04-12T11:29:49;7.00;;;2.50;;
73023;SDS011;61199;47.526;8.538;2023-04-12T11:32:19;5.10;;;2.90;;
73023;SDS011;61199;47.526;8.538;2023-04-12T11:34:46;5.17;;;2.47;;
73023;SDS011;61199;47.526;8.538;2023-04-12T11:37:13;6.70;;;3.13;;
73023;SDS011;61199;47.526;8.538;2023-04-12T11:39:41;6.10;;;2.57;;
73023;SDS011;61199;47.526;8.538;2023-04-12T11:42:15;3.27;;;2.27;;
73023;SDS011;61199;47.526;8.538;2023-04-12T11:44:43;6.83;;;2.97;;
73023;SDS011;61199;47.526;8.538;2023-04-12T11:47:14;3.10;;;2.30;;
73023;SDS011;61199;47.526;8.538;2023-04-12T11:49:45;15.77;;;3.20;;
73023;SDS011;61199;47.526;8.538;2023-04-12T11:52:29;4.90;;;2.93;;
73023;SDS011;61199;47.526;8.538;2023-04-12T11:55:00;6.67;;;2.83;;
73023;SDS011;61199;47.526;8.538;2023-04-12T11:57:30;5.93;;;2.67;;
73023;SDS011;61199;47.526;8.538;2023-04-12T11:59:56;7.03;;;2.20;;
73023;SDS011;61199;47.526;8.538;2023-04-12T12:02:26;3.90;;;2.43;;
73023;SDS011;61199;47.526;8.538;2023-04-12T12:05:01;5.23;;;2.93;;
73023;SDS011;61199;47.526;8.538;2023-04-12T12:07:28;5.73;;;2.63;;
73023;SDS011;61199;47.526;8.538;2023-04-12T12:09:55;4.27;;;2.60;;
73023;SDS011;61199;47.526;8.538;2023-04-12T12:12:22;6.53;;;2.67;;
73023;SDS011;61199;47.526;8.538;2023-04-12T12:14:49;7.30;;;2.90;;
73023;SDS011;61199;47.526;8.538;2023-04-12T12:17:16;3.00;;;2.17;;
73023;SDS011;61199;47.526;8.538;2023-04-12T12:19:43;6.87;;;3.17;;
73023;SDS011;61199;47.526;8.538;2023-04-12T12:22:20;7.03;;;3.13;;
73023;SDS011;61199;47.526;8.538;2023-04-12T12:24:50;6.50;;;3.57;;
73023;SDS011;61199;47.526;8.538;2023-04-12T12:27:32;3.93;;;2.40;;
73023;SDS011;61199;47.526;8.538;2023-04-12T12:30:00;5.67;;;2.50;;
73023;SDS011;61199;47.526;8.538;2023-04-12T12:32:32;5.17;;;3.00;;
73023;SDS011;61199;47.526;8.538;2023-04-12T12:35:00;9.10;;;2.60;;
73023;SDS011;61199;47.526;8.538;2023-04-12T12:37:27;5.10;;;2.60;;
73023;SDS011;61199;47.526;8.538;2023-04-12T12:40:13;6.07;;;2.67;;
73023;SDS011;61199;47.526;8.538;2023-04-12T12:42:47;4.20;;;2.30;;
73023;SDS011;61199;47.526;8.538;2023-04-12T12:45:16;7.00;;;3.07;;
73023;SDS011;61199;47.526;8.538;2023-04-12T12:50:29;4.87;;;2.13;;
73023;SDS011;61199;47.526;8.538;2023-04-12T12:52:57;6.53;;;2.37;;
73023;SDS011;61199;47.526;8.538;2023-04-12T12:55:25;6.67;;;2.73;;
73023;SDS011;61199;47.526;8.538;2023-04-12T12:57:53;4.83;;;2.73;;
73023;SDS011;61199;47.526;8.538;2023-04-12T13:00:33;5.30;;;2.57;;
73023;SDS011;61199;47.526;8.538;2023-04-12T13:03:00;3.30;;;2.00;;
73023;SDS011;61199;47.526;8.538;2023-04-12T13:05:27;7.90;;;2.00;;
73023;SDS011;61199;47.526;8.538;2023-04-12T13:07:53;4.57;;;1.97;;
73023;SDS011;61199;47.526;8.538;2023-04-12T13:10:20;4.77;;;2.17;;
73023;SDS011;61199;47.526;8.538;2023-04-12T13:12:46;7.37;;;1.90;;
73023;SDS011;61199;47.526;8.538;2023-04-12T13:15:13;3.40;;;2.20;;
73023;SDS011;61199;47.526;8.538;2023-04-12T13:17:42;10.10;;;2.20;;
73023;SDS011;61199;47.526;8.538;2023-04-12T13:20:09;6.07;;;2.00;;
73023;SDS011;61199;47.526;8.538;2023-04-12T13:22:35;4.80;;;1.70;;
73023;SDS011;61199;47.526;8.538;2023-04-12T13:25:02;2.93;;;1.20;;
73023;SDS011;61199;47.526;8.538;2023-04-12T13:27:29;3.03;;;1.60;;
73023;SDS011;61199;47.526;8.538;2023-04-12T13:29:55;3.70;;;1.27;;
73023;SDS011;61199;47.526;8.538;2023-04-12T13:32:21;3.60;;;1.30;;
73023;SDS011;61199;47.526;8.538;2023-04-12T13:34:48;5.53;;;1.30;;
73023;SDS011;61199;47.526;8.538;2023-04-12T13:37:14;3.70;;;1.23;;
73023;SDS011;61199;47.526;8.538;2023-04-12T13:39:41;2.10;;;1.13;;
73023;SDS011;61199;47.526;8.538;2023-04-12T13:42:09;1.93;;;1.27;;
73023;SDS011;61199;47.526;8.538;2023-04-12T13:44:36;9.80;;;1.60;;
73023;SDS011;61199;47.526;8.538;2023-04-12T13:47:02;7.33;;;1.90;;
73023;SDS011;61199;47.526;8.538;2023-04-12T13:49:28;5.20;;;1.70;;
73023;SDS011;61199;47.526;8.538;2023-04-12T13:51:55;3.70;;;1.80;;
73023;SDS011;61199;47.526;8.538;2023-04-12T13:54:21;8.50;;;1.90;;
73023;SDS011;61199;47.526;8.538;2023-04-12T13:56:48;3.07;;;1.50;;
73023;SDS011;61199;47.526;8.538;2023-04-12T13:59:14;6.93;;;1.80;;
73023;SDS011;61199;47.526;8.538;2023-04-12T14:01:41;2.27;;;1.40;;
73023;SDS011;61199;47.526;8.538;2023-04-12T14:04:07;3.90;;;1.50;;
73023;SDS011;61199;47.526;8.538;2023-04-12T14:06:34;4.90;;;1.67;;
73023;SDS011;61199;47.526;8.538;2023-04-12T14:09:01;4.30;;;1.57;;
73023;SDS011;61199;47.526;8.538;2023-04-12T14:11:27;6.63;;;1.50;;
73023;SDS011;61199;47.526;8.538;2023-04-12T14:13:54;3.47;;;1.40;;
73023;SDS011;61199;47.526;8.538;2023-04-12T14:16:20;6.20;;;1.47;;
73023;SDS011;61199;47.526;8.538;2023-04-12T14:18:47;3.90;;;1.27;;
73023;SDS011;61199;47.526;8.538;2023-04-12T14:21:13;3.33;;;1.40;;
73023;SDS011;61199;47.526;8.538;2023-04-12T14:23:39;3.10;;;1.60;;
73023;SDS011;61199;47.526;8.538;2023-04-12T14:26:06;3.90;;;1.50;;
73023;SDS011;61199;47.526;8.538;2023-04-12T14:28:33;4.80;;;1.60;;
73023;SDS011;61199;47.526;8.538;2023-04-12T14:31:00;2.10;;;1.43;;
73023;SDS011;61199;47.526;8.538;2023-04-12T14:33:30;7.60;;;1.80;;
73023;SDS011;61199;47.526;8.538;2023-04-12T14:35:56;3.90;;;1.53;;
73023;SDS011;61199;47.526;8.538;2023-04-12T14:38:23;3.57;;;1.67;;
73023;SDS011;61199;47.526;8.538;2023-04-12T14:40:49;6.83;;;1.97;;
73023;SDS011;61199;47.526;8.538;2023-04-12T14:43:16;7.30;;;1.67;;
73023;SDS011;61199;47.526;8.538;2023-04-12T14:45:43;1.77;;;1.30;;
73023;SDS011;61199;47.526;8.538;2023-04-12T14:48:09;4.30;;;1.60;;
73023;SDS011;61199;47.526;8.538;2023-04-12T14:50:36;5.13;;;1.57;;
73023;SDS011;61199;47.526;8.538;2023-04-12T14:53:02;8.43;;;1.90;;
73023;SDS011;61199;47.526;8.538;2023-04-12T14:55:28;2.60;;;1.50;;
73023;SDS011;61199;47.526;8.538;2023-04-12T14:57:55;5.10;;;2.00;;
73023;SDS011;61199;47.526;8.538;2023-04-12T15:00:21;4.90;;;1.80;;
73023;SDS011;61199;47.526;8.538;2023-04-12T15:02:48;3.67;;;1.53;;
73023;SDS011;61199;47.526;8.538;2023-04-12T15:05:15;3.50;;;2.00;;
73023;SDS011;61199;47.526;8.538;2023-04-12T15:07:41;3.97;;;2.00;;
73023;SDS011;61199;47.526;8.538;2023-04-12T15:10:08;4.33;;;1.70;;
73023;SDS011;61199;47.526;8.538;2023-04-12T15:12:34;3.23;;;1.47;;
73023;SDS011;61199;47.526;8.538;2023-04-12T15:15:02;6.17;;;1.50;;
73023;SDS011;61199;47.526;8.538;2023-04-12T15:17:31;1.67;;;1.07;;
73023;SDS011;61199;47.526;8.538;2023-04-12T15:19:59;2.00;;;1.20;;